Hoegh Africa — C6TD3 — position and weather

sailwx.info

Track history (hours):
 
Tides and Currents Weather Stations Pressure Air Temp Water Temp Dewpoint Dewpoint Depression Visibility Wind Speed Wind Dir Waves Ship Positions

Hoegh Africa

Last reported at 2017-Nov-19 13:38 UTC. Time now 2017-Nov-20 15:33 UTC.
Position N 33°52' E 134°57'.

Length 200 m; draft 8.4 m.

Type: Cargo ship. MMSI: 311594000.

Date/timePositionNaut miles runAvg speedWind from/ knotsBaromVisibWave heightAir tempDewpointWater temp
2017-Nov-19 13:38N 33°52' E 134°57'312.4
2017-Nov-19 13:23N 33°55' E 134°56'512.4
2017-Nov-19 13:00N 33°59' E 134°56'612.3
2017-Nov-19 12:30N 34°05' E 134°57'612.4
2017-Nov-19 12:00N 34°12' E 134°58'611.2
2017-Nov-19 11:30N 34°17' E 134°59'815.0
2017-Nov-19 11:00N 34°24' E 135°03'918.6
2017-Nov-19 10:30N 34°29' E 135°12'816.3
2017-Nov-19 10:00N 34°33' E 135°21'3 5.7
2017-Nov-19 09:30N 34°31' E 135°23'0 0.0
2017-Nov-19 08:54N 34°31' E 135°23'0 0.0
2017-Nov-19 08:24N 34°31' E 135°23'0 0.0
2017-Nov-19 08:00N 34°31' E 135°23'0 0.0
2017-Nov-19 07:24N 34°31' E 135°23'0 0.0
2017-Nov-19 06:47N 34°31' E 135°23'0 0.0
2017-Nov-19 06:29N 34°31' E 135°23'0 0.0
2017-Nov-19 05:47N 34°31' E 135°23'0 0.0
2017-Nov-19 05:29N 34°31' E 135°23'0 0.0
2017-Nov-19 04:53N 34°31' E 135°23'0 0.0
2017-Nov-19 04:17N 34°31' E 135°23'0 0.0
2017-Nov-19 03:59N 34°31' E 135°23'0 0.0
2017-Nov-19 03:29N 34°31' E 135°23'0 0.0
2017-Nov-19 02:59N 34°31' E 135°23'0 0.0
2017-Nov-19 02:23N 34°31' E 135°23'0 0.0
2017-Nov-19 01:59N 34°31' E 135°23'0 0.0
2017-Nov-19 01:29N 34°31' E 135°23'0 0.0
2017-Nov-19 00:53N 34°31' E 135°23'0 0.0
2017-Nov-19 00:29N 34°31' E 135°23'0 0.0
2017-Nov-18 23:59N 34°31' E 135°23'0 0.0
2017-Nov-18 23:29N 34°31' E 135°23'0 0.0
2017-Nov-18 22:59N 34°31' E 135°23'0 0.0
2017-Nov-18 22:27N 34°31' E 135°23'2 4.6
2017-Nov-18 21:59N 34°33' E 135°22'611.7
2017-Nov-18 21:30N 34°31' E 135°15'816.6
2017-Nov-18 21:00N 34°26' E 135°08'917.1
2017-Nov-18 20:30N 34°20' E 135°00'815.9
2017-Nov-18 20:00N 34°12' E 135°00'5 9.8
2017-Nov-18 19:30N 34°07' E 134°60'510.8
2017-Nov-18 19:00N 34°01' E 134°59'510.4
2017-Nov-18 18:29N 33°56' E 134°58'  
2017-Nov-13 01:47N 22°18' E 114°06'311.6
2017-Nov-13 01:29N 22°15' E 114°07'5 8.4
2017-Nov-13 00:50N 22°11' E 114°12'3 8.9
2017-Nov-13 00:31N 22°09' E 114°14'510.8
2017-Nov-13 00:00N 22°08' E 114°19'611.8
2017-Nov-12 23:28N 22°04' E 114°25'816.7
2017-Nov-12 23:00N 21°56' E 114°25'816.1
2017-Nov-12 22:29N 21°48' E 114°25'916.2
2017-Nov-12 21:54N 21°38' E 114°26'  
Track history (hours):
 
Tides and Currents Weather Stations Pressure Air Temp Water Temp Dewpoint Dewpoint Depression Visibility Wind Speed Wind Dir Waves Ship Positions

Hoegh Africa

Last reported at 2017-Nov-19 13:38 UTC. Time now 2017-Nov-20 15:33 UTC.
Position N 33°52' E 134°57'.

Length 200 m; draft 8.4 m.

Type: Cargo ship. MMSI: 311594000.

Date/timePositionNaut miles runAvg speedWind from/ knotsBaromVisibWave heightAir tempDewpointWater temp
2017-Nov-19 13:38N 33°52' E 134°57'312.4
2017-Nov-19 13:23N 33°55' E 134°56'512.4
2017-Nov-19 13:00N 33°59' E 134°56'612.3
2017-Nov-19 12:30N 34°05' E 134°57'612.4
2017-Nov-19 12:00N 34°12' E 134°58'611.2
2017-Nov-19 11:30N 34°17' E 134°59'815.0
2017-Nov-19 11:00N 34°24' E 135°03'918.6
2017-Nov-19 10:30N 34°29' E 135°12'816.3
2017-Nov-19 10:00N 34°33' E 135°21'3 5.7
2017-Nov-19 09:30N 34°31' E 135°23'0 0.0
2017-Nov-19 08:54N 34°31' E 135°23'0 0.0
2017-Nov-19 08:24N 34°31' E 135°23'0 0.0
2017-Nov-19 08:00N 34°31' E 135°23'0 0.0
2017-Nov-19 07:24N 34°31' E 135°23'0 0.0
2017-Nov-19 06:47N 34°31' E 135°23'0 0.0
2017-Nov-19 06:29N 34°31' E 135°23'0 0.0
2017-Nov-19 05:47N 34°31' E 135°23'0 0.0
2017-Nov-19 05:29N 34°31' E 135°23'0 0.0
2017-Nov-19 04:53N 34°31' E 135°23'0 0.0
2017-Nov-19 04:17N 34°31' E 135°23'0 0.0
2017-Nov-19 03:59N 34°31' E 135°23'0 0.0
2017-Nov-19 03:29N 34°31' E 135°23'0 0.0
2017-Nov-19 02:59N 34°31' E 135°23'0 0.0
2017-Nov-19 02:23N 34°31' E 135°23'0 0.0
2017-Nov-19 01:59N 34°31' E 135°23'0 0.0
2017-Nov-19 01:29N 34°31' E 135°23'0 0.0
2017-Nov-19 00:53N 34°31' E 135°23'0 0.0
2017-Nov-19 00:29N 34°31' E 135°23'0 0.0
2017-Nov-18 23:59N 34°31' E 135°23'0 0.0
2017-Nov-18 23:29N 34°31' E 135°23'0 0.0
2017-Nov-18 22:59N 34°31' E 135°23'0 0.0
2017-Nov-18 22:27N 34°31' E 135°23'2 4.6
2017-Nov-18 21:59N 34°33' E 135°22'611.7
2017-Nov-18 21:30N 34°31' E 135°15'816.6
2017-Nov-18 21:00N 34°26' E 135°08'917.1
2017-Nov-18 20:30N 34°20' E 135°00'815.9
2017-Nov-18 20:00N 34°12' E 135°00'5 9.8
2017-Nov-18 19:30N 34°07' E 134°60'510.8
2017-Nov-18 19:00N 34°01' E 134°59'510.4
2017-Nov-18 18:29N 33°56' E 134°58'  
2017-Nov-13 01:47N 22°18' E 114°06'311.6
2017-Nov-13 01:29N 22°15' E 114°07'5 8.4
2017-Nov-13 00:50N 22°11' E 114°12'3 8.9
2017-Nov-13 00:31N 22°09' E 114°14'510.8
2017-Nov-13 00:00N 22°08' E 114°19'611.8
2017-Nov-12 23:28N 22°04' E 114°25'816.7
2017-Nov-12 23:00N 21°56' E 114°25'816.1
2017-Nov-12 22:29N 21°48' E 114°25'916.2
2017-Nov-12 21:54N 21°38' E 114°26'  

Dump ship's entire track history